sensor_id;sensor_type;location;lat;lon;timestamp;P1;durP1;ratioP1;P2;durP2;ratioP2
4794;SDS011;2411;47.060;15.064;2023-04-08T00:00:49;7.43;;;6.60;;
4794;SDS011;2411;47.060;15.064;2023-04-08T00:03:16;7.73;;;6.93;;
4794;SDS011;2411;47.060;15.064;2023-04-08T00:05:44;8.77;;;5.90;;
4794;SDS011;2411;47.060;15.064;2023-04-08T00:08:12;7.50;;;6.23;;
4794;SDS011;2411;47.060;15.064;2023-04-08T00:10:39;6.40;;;5.80;;
4794;SDS011;2411;47.060;15.064;2023-04-08T00:13:07;7.40;;;5.60;;
4794;SDS011;2411;47.060;15.064;2023-04-08T00:15:35;7.60;;;6.30;;
4794;SDS011;2411;47.060;15.064;2023-04-08T00:18:02;7.07;;;6.13;;
4794;SDS011;2411;47.060;15.064;2023-04-08T00:20:30;6.70;;;6.00;;
4794;SDS011;2411;47.060;15.064;2023-04-08T00:22:57;6.30;;;5.50;;
4794;SDS011;2411;47.060;15.064;2023-04-08T00:25:24;6.93;;;6.27;;
4794;SDS011;2411;47.060;15.064;2023-04-08T00:27:52;6.73;;;6.03;;
4794;SDS011;2411;47.060;15.064;2023-04-08T00:30:19;7.50;;;6.67;;
4794;SDS011;2411;47.060;15.064;2023-04-08T00:32:47;7.40;;;6.60;;
4794;SDS011;2411;47.060;15.064;2023-04-08T00:35:14;7.43;;;5.33;;
4794;SDS011;2411;47.060;15.064;2023-04-08T00:37:41;7.77;;;5.87;;
4794;SDS011;2411;47.060;15.064;2023-04-08T00:40:09;6.77;;;5.90;;
4794;SDS011;2411;47.060;15.064;2023-04-08T00:42:36;8.03;;;5.90;;
4794;SDS011;2411;47.060;15.064;2023-04-08T00:45:04;7.23;;;6.33;;
4794;SDS011;2411;47.060;15.064;2023-04-08T00:47:32;6.73;;;6.03;;
4794;SDS011;2411;47.060;15.064;2023-04-08T00:50:01;6.90;;;6.20;;
4794;SDS011;2411;47.060;15.064;2023-04-08T00:52:30;7.63;;;6.80;;
4794;SDS011;2411;47.060;15.064;2023-04-08T00:54:57;8.47;;;5.97;;
4794;SDS011;2411;47.060;15.064;2023-04-08T00:57:24;8.30;;;6.27;;
4794;SDS011;2411;47.060;15.064;2023-04-08T00:59:51;7.53;;;6.73;;
4794;SDS011;2411;47.060;15.064;2023-04-08T01:05:23;7.60;;;5.40;;
4794;SDS011;2411;47.060;15.064;2023-04-08T01:08:04;6.63;;;5.93;;
4794;SDS011;2411;47.060;15.064;2023-04-08T01:10:34;7.77;;;6.70;;
4794;SDS011;2411;47.060;15.064;2023-04-08T01:13:05;8.17;;;6.90;;
4794;SDS011;2411;47.060;15.064;2023-04-08T01:15:37;6.37;;;5.60;;
4794;SDS011;2411;47.060;15.064;2023-04-08T01:18:07;6.77;;;6.10;;
4794;SDS011;2411;47.060;15.064;2023-04-08T01:20:39;8.43;;;6.10;;
4794;SDS011;2411;47.060;15.064;2023-04-08T01:26:01;7.60;;;6.07;;
4794;SDS011;2411;47.060;15.064;2023-04-08T01:28:28;6.87;;;6.00;;
4794;SDS011;2411;47.060;15.064;2023-04-08T01:30:57;6.27;;;5.67;;
4794;SDS011;2411;47.060;15.064;2023-04-08T01:33:26;9.73;;;6.47;;
4794;SDS011;2411;47.060;15.064;2023-04-08T01:35:55;9.37;;;7.60;;
4794;SDS011;2411;47.060;15.064;2023-04-08T01:38:24;8.40;;;7.50;;
4794;SDS011;2411;47.060;15.064;2023-04-08T01:40:55;9.23;;;7.40;;
4794;SDS011;2411;47.060;15.064;2023-04-08T01:43:23;9.10;;;7.23;;
4794;SDS011;2411;47.060;15.064;2023-04-08T01:45:52;10.17;;;7.30;;
4794;SDS011;2411;47.060;15.064;2023-04-08T01:48:24;7.37;;;6.67;;
4794;SDS011;2411;47.060;15.064;2023-04-08T01:50:52;6.70;;;6.00;;
4794;SDS011;2411;47.060;15.064;2023-04-08T01:53:21;7.70;;;6.90;;
4794;SDS011;2411;47.060;15.064;2023-04-08T01:55:54;7.60;;;6.90;;
4794;SDS011;2411;47.060;15.064;2023-04-08T01:58:38;7.03;;;6.33;;
4794;SDS011;2411;47.060;15.064;2023-04-08T02:01:09;7.80;;;6.77;;
4794;SDS011;2411;47.060;15.064;2023-04-08T02:03:40;8.30;;;7.00;;
4794;SDS011;2411;47.060;15.064;2023-04-08T02:06:10;7.00;;;6.33;;
4794;SDS011;2411;47.060;15.064;2023-04-08T02:08:37;8.50;;;6.73;;
4794;SDS011;2411;47.060;15.064;2023-04-08T02:11:05;8.47;;;6.60;;
4794;SDS011;2411;47.060;15.064;2023-04-08T02:13:32;7.63;;;6.53;;
4794;SDS011;2411;47.060;15.064;2023-04-08T02:16:02;7.47;;;6.73;;
4794;SDS011;2411;47.060;15.064;2023-04-08T02:18:34;7.27;;;6.40;;
4794;SDS011;2411;47.060;15.064;2023-04-08T02:21:09;10.53;;;6.77;;
4794;SDS011;2411;47.060;15.064;2023-04-08T02:23:40;7.40;;;6.60;;
4794;SDS011;2411;47.060;15.064;2023-04-08T02:26:12;11.27;;;6.97;;
4794;SDS011;2411;47.060;15.064;2023-04-08T02:28:41;8.70;;;7.40;;
4794;SDS011;2411;47.060;15.064;2023-04-08T02:31:10;8.20;;;7.30;;
4794;SDS011;2411;47.060;15.064;2023-04-08T02:33:41;7.57;;;6.87;;
4794;SDS011;2411;47.060;15.064;2023-04-08T02:36:09;10.63;;;7.63;;
4794;SDS011;2411;47.060;15.064;2023-04-08T02:38:38;6.97;;;6.10;;
4794;SDS011;2411;47.060;15.064;2023-04-08T02:41:05;11.07;;;6.53;;
4794;SDS011;2411;47.060;15.064;2023-04-08T02:43:32;11.43;;;7.00;;
4794;SDS011;2411;47.060;15.064;2023-04-08T02:46:00;6.70;;;6.10;;
4794;SDS011;2411;47.060;15.064;2023-04-08T02:48:30;10.63;;;6.87;;
4794;SDS011;2411;47.060;15.064;2023-04-08T02:50:57;8.13;;;6.80;;
4794;SDS011;2411;47.060;15.064;2023-04-08T02:53:24;8.80;;;6.80;;
4794;SDS011;2411;47.060;15.064;2023-04-08T02:55:52;9.30;;;6.67;;
4794;SDS011;2411;47.060;15.064;2023-04-08T02:58:19;9.43;;;7.27;;
4794;SDS011;2411;47.060;15.064;2023-04-08T03:00:46;7.60;;;6.90;;
4794;SDS011;2411;47.060;15.064;2023-04-08T03:03:14;7.20;;;6.47;;
4794;SDS011;2411;47.060;15.064;2023-04-08T03:05:42;8.17;;;6.57;;
4794;SDS011;2411;47.060;15.064;2023-04-08T03:08:09;7.60;;;6.83;;
4794;SDS011;2411;47.060;15.064;2023-04-08T03:10:36;8.17;;;6.47;;
4794;SDS011;2411;47.060;15.064;2023-04-08T03:13:04;7.43;;;6.73;;
4794;SDS011;2411;47.060;15.064;2023-04-08T03:15:31;6.97;;;5.83;;
4794;SDS011;2411;47.060;15.064;2023-04-08T03:17:58;7.13;;;6.43;;
4794;SDS011;2411;47.060;15.064;2023-04-08T03:20:26;8.50;;;7.00;;
4794;SDS011;2411;47.060;15.064;2023-04-08T03:22:53;7.83;;;6.43;;
4794;SDS011;2411;47.060;15.064;2023-04-08T03:25:20;7.57;;;6.63;;
4794;SDS011;2411;47.060;15.064;2023-04-08T03:27:48;7.20;;;6.50;;
4794;SDS011;2411;47.060;15.064;2023-04-08T03:30:15;6.53;;;5.93;;
4794;SDS011;2411;47.060;15.064;2023-04-08T03:32:42;8.13;;;7.33;;
4794;SDS011;2411;47.060;15.064;2023-04-08T03:35:10;8.30;;;7.10;;
4794;SDS011;2411;47.060;15.064;2023-04-08T03:37:37;6.60;;;5.93;;
4794;SDS011;2411;47.060;15.064;2023-04-08T03:40:05;9.20;;;6.13;;
4794;SDS011;2411;47.060;15.064;2023-04-08T03:42:33;7.50;;;6.70;;
4794;SDS011;2411;47.060;15.064;2023-04-08T03:45:00;11.00;;;6.40;;
4794;SDS011;2411;47.060;15.064;2023-04-08T03:47:28;8.73;;;6.90;;
4794;SDS011;2411;47.060;15.064;2023-04-08T03:49:56;7.03;;;6.37;;
4794;SDS011;2411;47.060;15.064;2023-04-08T03:52:23;7.90;;;6.90;;
4794;SDS011;2411;47.060;15.064;2023-04-08T03:54:51;7.33;;;6.50;;
4794;SDS011;2411;47.060;15.064;2023-04-08T03:57:18;6.80;;;6.10;;
4794;SDS011;2411;47.060;15.064;2023-04-08T03:59:46;6.67;;;5.80;;
4794;SDS011;2411;47.060;15.064;2023-04-08T04:02:13;7.10;;;6.20;;
4794;SDS011;2411;47.060;15.064;2023-04-08T04:04:40;7.93;;;6.30;;
4794;SDS011;2411;47.060;15.064;2023-04-08T04:07:08;9.67;;;6.27;;
4794;SDS011;2411;47.060;15.064;2023-04-08T04:09:35;8.70;;;6.90;;
4794;SDS011;2411;47.060;15.064;2023-04-08T04:12:03;7.67;;;6.40;;
4794;SDS011;2411;47.060;15.064;2023-04-08T04:14:30;13.27;;;5.80;;
4794;SDS011;2411;47.060;15.064;2023-04-08T04:16:57;7.03;;;6.37;;
4794;SDS011;2411;47.060;15.064;2023-04-08T04:19:28;6.63;;;5.30;;
4794;SDS011;2411;47.060;15.064;2023-04-08T04:21:56;6.53;;;5.73;;
4794;SDS011;2411;47.060;15.064;2023-04-08T04:24:24;5.93;;;5.30;;
4794;SDS011;2411;47.060;15.064;2023-04-08T04:26:51;6.60;;;6.00;;
4794;SDS011;2411;47.060;15.064;2023-04-08T04:29:18;7.23;;;6.40;;
4794;SDS011;2411;47.060;15.064;2023-04-08T04:31:46;7.77;;;5.97;;
4794;SDS011;2411;47.060;15.064;2023-04-08T04:34:13;7.57;;;6.30;;
4794;SDS011;2411;47.060;15.064;2023-04-08T04:36:41;10.67;;;7.90;;
4794;SDS011;2411;47.060;15.064;2023-04-08T04:39:09;10.70;;;7.90;;
4794;SDS011;2411;47.060;15.064;2023-04-08T04:41:36;9.20;;;8.27;;
4794;SDS011;2411;47.060;15.064;2023-04-08T04:44:06;8.10;;;7.30;;
4794;SDS011;2411;47.060;15.064;2023-04-08T04:46:33;12.10;;;9.10;;
4794;SDS011;2411;47.060;15.064;2023-04-08T04:49:00;17.20;;;9.70;;
4794;SDS011;2411;47.060;15.064;2023-04-08T04:51:30;11.80;;;8.87;;
4794;SDS011;2411;47.060;15.064;2023-04-08T04:53:58;16.67;;;9.33;;
4794;SDS011;2411;47.060;15.064;2023-04-08T04:56:26;13.40;;;9.53;;
4794;SDS011;2411;47.060;15.064;2023-04-08T04:58:53;11.00;;;9.20;;
4794;SDS011;2411;47.060;15.064;2023-04-08T05:01:20;13.40;;;9.90;;
4794;SDS011;2411;47.060;15.064;2023-04-08T05:03:48;16.43;;;9.47;;
4794;SDS011;2411;47.060;15.064;2023-04-08T05:06:15;12.40;;;9.30;;
4794;SDS011;2411;47.060;15.064;2023-04-08T05:08:42;11.73;;;9.40;;
4794;SDS011;2411;47.060;15.064;2023-04-08T05:11:10;10.77;;;8.37;;
4794;SDS011;2411;47.060;15.064;2023-04-08T05:13:38;10.83;;;7.40;;
4794;SDS011;2411;47.060;15.064;2023-04-08T05:16:05;7.13;;;6.43;;
4794;SDS011;2411;47.060;15.064;2023-04-08T05:18:33;8.83;;;7.33;;
4794;SDS011;2411;47.060;15.064;2023-04-08T05:21:00;10.13;;;7.93;;
4794;SDS011;2411;47.060;15.064;2023-04-08T05:23:28;9.50;;;7.00;;
4794;SDS011;2411;47.060;15.064;2023-04-08T05:25:55;7.90;;;7.10;;
4794;SDS011;2411;47.060;15.064;2023-04-08T05:28:23;12.37;;;8.57;;
4794;SDS011;2411;47.060;15.064;2023-04-08T05:30:50;8.57;;;7.50;;
4794;SDS011;2411;47.060;15.064;2023-04-08T05:33:19;9.50;;;8.50;;
4794;SDS011;2411;47.060;15.064;2023-04-08T05:35:46;10.70;;;8.10;;
4794;SDS011;2411;47.060;15.064;2023-04-08T05:38:14;10.63;;;8.53;;
4794;SDS011;2411;47.060;15.064;2023-04-08T05:40:41;11.07;;;9.10;;
4794;SDS011;2411;47.060;15.064;2023-04-08T05:43:08;9.37;;;8.37;;
4794;SDS011;2411;47.060;15.064;2023-04-08T05:45:36;9.30;;;8.30;;
4794;SDS011;2411;47.060;15.064;2023-04-08T05:48:03;9.83;;;7.97;;
4794;SDS011;2411;47.060;15.064;2023-04-08T05:50:30;10.13;;;8.60;;
4794;SDS011;2411;47.060;15.064;2023-04-08T05:53:00;8.53;;;7.73;;
4794;SDS011;2411;47.060;15.064;2023-04-08T05:55:27;10.83;;;8.17;;
4794;SDS011;2411;47.060;15.064;2023-04-08T05:57:55;11.73;;;9.30;;
4794;SDS011;2411;47.060;15.064;2023-04-08T06:00:22;9.87;;;8.83;;
4794;SDS011;2411;47.060;15.064;2023-04-08T06:02:49;14.93;;;10.50;;
4794;SDS011;2411;47.060;15.064;2023-04-08T06:05:17;15.07;;;10.10;;
4794;SDS011;2411;47.060;15.064;2023-04-08T06:07:44;11.93;;;10.50;;
4794;SDS011;2411;47.060;15.064;2023-04-08T06:10:12;16.40;;;9.67;;
4794;SDS011;2411;47.060;15.064;2023-04-08T06:12:39;14.37;;;9.90;;
4794;SDS011;2411;47.060;15.064;2023-04-08T06:15:07;14.10;;;10.90;;
4794;SDS011;2411;47.060;15.064;2023-04-08T06:17:35;16.10;;;10.67;;
4794;SDS011;2411;47.060;15.064;2023-04-08T06:20:04;15.83;;;11.90;;
4794;SDS011;2411;47.060;15.064;2023-04-08T06:22:32;21.43;;;10.77;;
4794;SDS011;2411;47.060;15.064;2023-04-08T06:24:59;12.20;;;10.70;;
4794;SDS011;2411;47.060;15.064;2023-04-08T06:27:27;14.50;;;11.23;;
4794;SDS011;2411;47.060;15.064;2023-04-08T06:29:54;14.47;;;11.97;;
4794;SDS011;2411;47.060;15.064;2023-04-08T06:32:21;22.00;;;13.13;;
4794;SDS011;2411;47.060;15.064;2023-04-08T06:34:49;15.93;;;12.10;;
4794;SDS011;2411;47.060;15.064;2023-04-08T06:37:16;16.30;;;13.33;;
4794;SDS011;2411;47.060;15.064;2023-04-08T06:39:43;17.07;;;13.53;;
4794;SDS011;2411;47.060;15.064;2023-04-08T06:42:11;17.77;;;14.47;;
4794;SDS011;2411;47.060;15.064;2023-04-08T06:44:38;21.40;;;14.57;;
4794;SDS011;2411;47.060;15.064;2023-04-08T06:47:05;19.27;;;15.07;;
4794;SDS011;2411;47.060;15.064;2023-04-08T06:49:33;18.53;;;13.20;;
4794;SDS011;2411;47.060;15.064;2023-04-08T06:52:00;17.30;;;13.07;;
4794;SDS011;2411;47.060;15.064;2023-04-08T06:54:27;16.77;;;13.87;;
4794;SDS011;2411;47.060;15.064;2023-04-08T06:56:55;20.70;;;15.13;;
4794;SDS011;2411;47.060;15.064;2023-04-08T06:59:22;15.37;;;12.70;;
4794;SDS011;2411;47.060;15.064;2023-04-08T07:01:49;19.53;;;14.20;;
4794;SDS011;2411;47.060;15.064;2023-04-08T07:04:18;17.63;;;14.83;;
4794;SDS011;2411;47.060;15.064;2023-04-08T07:06:45;19.20;;;15.10;;
4794;SDS011;2411;47.060;15.064;2023-04-08T07:09:13;17.17;;;13.87;;
4794;SDS011;2411;47.060;15.064;2023-04-08T07:11:40;19.03;;;13.33;;
4794;SDS011;2411;47.060;15.064;2023-04-08T07:14:07;18.37;;;14.10;;
4794;SDS011;2411;47.060;15.064;2023-04-08T07:16:36;15.87;;;13.87;;
4794;SDS011;2411;47.060;15.064;2023-04-08T07:19:04;15.93;;;13.30;;
4794;SDS011;2411;47.060;15.064;2023-04-08T07:21:31;15.80;;;13.30;;
4794;SDS011;2411;47.060;15.064;2023-04-08T07:23:58;16.20;;;13.20;;
4794;SDS011;2411;47.060;15.064;2023-04-08T07:26:26;15.90;;;14.03;;
4794;SDS011;2411;47.060;15.064;2023-04-08T07:28:54;16.10;;;14.40;;
4794;SDS011;2411;47.060;15.064;2023-04-08T07:31:21;18.03;;;14.00;;
4794;SDS011;2411;47.060;15.064;2023-04-08T07:33:49;17.67;;;13.97;;
4794;SDS011;2411;47.060;15.064;2023-04-08T07:36:16;19.27;;;16.03;;
4794;SDS011;2411;47.060;15.064;2023-04-08T07:38:44;18.20;;;14.40;;
4794;SDS011;2411;47.060;15.064;2023-04-08T07:41:11;17.10;;;14.13;;
4794;SDS011;2411;47.060;15.064;2023-04-08T07:43:39;19.33;;;14.87;;
4794;SDS011;2411;47.060;15.064;2023-04-08T07:46:06;16.97;;;13.77;;
4794;SDS011;2411;47.060;15.064;2023-04-08T07:48:35;16.20;;;14.40;;
4794;SDS011;2411;47.060;15.064;2023-04-08T07:51:03;16.30;;;14.53;;
4794;SDS011;2411;47.060;15.064;2023-04-08T07:53:36;16.87;;;14.20;;
4794;SDS011;2411;47.060;15.064;2023-04-08T07:56:13;19.37;;;14.27;;
4794;SDS011;2411;47.060;15.064;2023-04-08T07:58:42;15.77;;;14.13;;
4794;SDS011;2411;47.060;15.064;2023-04-08T08:01:16;15.87;;;13.90;;
4794;SDS011;2411;47.060;15.064;2023-04-08T08:03:53;17.30;;;15.13;;
4794;SDS011;2411;47.060;15.064;2023-04-08T08:06:21;20.57;;;15.43;;
4794;SDS011;2411;47.060;15.064;2023-04-08T08:08:50;20.33;;;16.27;;
4794;SDS011;2411;47.060;15.064;2023-04-08T08:11:18;20.73;;;15.13;;
4794;SDS011;2411;47.060;15.064;2023-04-08T08:13:45;16.87;;;15.07;;
4794;SDS011;2411;47.060;15.064;2023-04-08T08:16:12;18.93;;;14.70;;
4794;SDS011;2411;47.060;15.064;2023-04-08T08:18:40;19.17;;;15.63;;
4794;SDS011;2411;47.060;15.064;2023-04-08T08:21:08;17.97;;;14.90;;
4794;SDS011;2411;47.060;15.064;2023-04-08T08:23:35;16.73;;;14.37;;
4794;SDS011;2411;47.060;15.064;2023-04-08T08:26:07;20.10;;;16.90;;
4794;SDS011;2411;47.060;15.064;2023-04-08T08:28:36;22.87;;;17.10;;
4794;SDS011;2411;47.060;15.064;2023-04-08T08:31:05;21.07;;;16.33;;
4794;SDS011;2411;47.060;15.064;2023-04-08T08:33:32;21.10;;;15.50;;
4794;SDS011;2411;47.060;15.064;2023-04-08T08:36:00;18.00;;;15.67;;
4794;SDS011;2411;47.060;15.064;2023-04-08T08:38:27;21.07;;;16.67;;
4794;SDS011;2411;47.060;15.064;2023-04-08T08:40:55;18.63;;;15.53;;
4794;SDS011;2411;47.060;15.064;2023-04-08T08:43:24;20.13;;;15.80;;
4794;SDS011;2411;47.060;15.064;2023-04-08T08:45:52;19.70;;;15.67;;
4794;SDS011;2411;47.060;15.064;2023-04-08T08:48:19;20.23;;;18.00;;
4794;SDS011;2411;47.060;15.064;2023-04-08T08:50:50;22.50;;;18.57;;
4794;SDS011;2411;47.060;15.064;2023-04-08T08:53:17;20.00;;;16.70;;
4794;SDS011;2411;47.060;15.064;2023-04-08T08:55:46;20.17;;;17.50;;
4794;SDS011;2411;47.060;15.064;2023-04-08T08:58:17;19.10;;;16.67;;
4794;SDS011;2411;47.060;15.064;2023-04-08T09:00:44;17.50;;;15.37;;
4794;SDS011;2411;47.060;15.064;2023-04-08T09:05:59;20.07;;;16.13;;
4794;SDS011;2411;47.060;15.064;2023-04-08T09:08:34;17.33;;;14.90;;
4794;SDS011;2411;47.060;15.064;2023-04-08T09:11:16;17.33;;;14.60;;
4794;SDS011;2411;47.060;15.064;2023-04-08T09:13:46;16.80;;;14.93;;
4794;SDS011;2411;47.060;15.064;2023-04-08T09:16:14;17.30;;;15.00;;
4794;SDS011;2411;47.060;15.064;2023-04-08T09:18:44;18.80;;;16.07;;
4794;SDS011;2411;47.060;15.064;2023-04-08T09:21:14;17.80;;;15.87;;
4794;SDS011;2411;47.060;15.064;2023-04-08T09:23:46;20.37;;;17.07;;
4794;SDS011;2411;47.060;15.064;2023-04-08T09:28:56;19.77;;;17.33;;
4794;SDS011;2411;47.060;15.064;2023-04-08T09:31:30;21.50;;;16.93;;
4794;SDS011;2411;47.060;15.064;2023-04-08T09:34:00;19.53;;;17.37;;
4794;SDS011;2411;47.060;15.064;2023-04-08T09:36:35;21.60;;;17.10;;
4794;SDS011;2411;47.060;15.064;2023-04-08T09:39:03;20.37;;;16.60;;
4794;SDS011;2411;47.060;15.064;2023-04-08T09:41:32;19.67;;;16.93;;
4794;SDS011;2411;47.060;15.064;2023-04-08T09:44:04;22.03;;;16.70;;
4794;SDS011;2411;47.060;15.064;2023-04-08T09:52:23;21.27;;;17.03;;
4794;SDS011;2411;47.060;15.064;2023-04-08T09:55:02;20.57;;;17.30;;
4794;SDS011;2411;47.060;15.064;2023-04-08T09:57:43;22.50;;;18.60;;
4794;SDS011;2411;47.060;15.064;2023-04-08T10:00:16;18.73;;;16.13;;
4794;SDS011;2411;47.060;15.064;2023-04-08T10:05:26;18.80;;;15.97;;
4794;SDS011;2411;47.060;15.064;2023-04-08T10:07:54;19.47;;;16.03;;
4794;SDS011;2411;47.060;15.064;2023-04-08T10:10:23;20.63;;;16.50;;
4794;SDS011;2411;47.060;15.064;2023-04-08T10:12:51;21.17;;;18.63;;
4794;SDS011;2411;47.060;15.064;2023-04-08T10:17:54;20.17;;;16.40;;
4794;SDS011;2411;47.060;15.064;2023-04-08T10:20:45;20.60;;;17.90;;
4794;SDS011;2411;47.060;15.064;2023-04-08T10:23:16;22.33;;;17.80;;
4794;SDS011;2411;47.060;15.064;2023-04-08T10:25:44;21.80;;;17.73;;
4794;SDS011;2411;47.060;15.064;2023-04-08T10:30:50;22.57;;;18.93;;
4794;SDS011;2411;47.060;15.064;2023-04-08T10:35:59;22.33;;;19.07;;
4794;SDS011;2411;47.060;15.064;2023-04-08T10:38:40;25.77;;;18.93;;
4794;SDS011;2411;47.060;15.064;2023-04-08T10:41:11;24.10;;;19.87;;
4794;SDS011;2411;47.060;15.064;2023-04-08T10:43:40;23.73;;;19.47;;
4794;SDS011;2411;47.060;15.064;2023-04-08T10:46:09;23.77;;;19.00;;
4794;SDS011;2411;47.060;15.064;2023-04-08T10:48:37;21.60;;;19.30;;
4794;SDS011;2411;47.060;15.064;2023-04-08T10:51:04;21.43;;;19.13;;
4794;SDS011;2411;47.060;15.064;2023-04-08T10:53:32;22.80;;;19.23;;
4794;SDS011;2411;47.060;15.064;2023-04-08T10:56:04;24.37;;;20.30;;
4794;SDS011;2411;47.060;15.064;2023-04-08T10:58:36;23.97;;;20.60;;
4794;SDS011;2411;47.060;15.064;2023-04-08T11:01:14;26.20;;;20.83;;
4794;SDS011;2411;47.060;15.064;2023-04-08T11:03:41;21.97;;;19.27;;
4794;SDS011;2411;47.060;15.064;2023-04-08T11:06:09;24.53;;;18.40;;
4794;SDS011;2411;47.060;15.064;2023-04-08T11:08:37;23.73;;;19.10;;
4794;SDS011;2411;47.060;15.064;2023-04-08T11:11:05;22.47;;;19.87;;
4794;SDS011;2411;47.060;15.064;2023-04-08T11:13:38;25.57;;;19.57;;
4794;SDS011;2411;47.060;15.064;2023-04-08T11:16:18;22.60;;;17.87;;
4794;SDS011;2411;47.060;15.064;2023-04-08T11:18:46;18.50;;;16.47;;
4794;SDS011;2411;47.060;15.064;2023-04-08T11:21:14;24.13;;;18.47;;
4794;SDS011;2411;47.060;15.064;2023-04-08T11:23:42;30.60;;;19.03;;
4794;SDS011;2411;47.060;15.064;2023-04-08T11:26:09;19.70;;;16.93;;
4794;SDS011;2411;47.060;15.064;2023-04-08T11:28:37;22.03;;;17.40;;
4794;SDS011;2411;47.060;15.064;2023-04-08T11:31:05;20.13;;;16.50;;
4794;SDS011;2411;47.060;15.064;2023-04-08T11:33:34;21.07;;;16.90;;
4794;SDS011;2411;47.060;15.064;2023-04-08T11:36:02;20.33;;;17.30;;
4794;SDS011;2411;47.060;15.064;2023-04-08T11:38:34;20.77;;;17.20;;
4794;SDS011;2411;47.060;15.064;2023-04-08T11:41:08;22.13;;;18.60;;
4794;SDS011;2411;47.060;15.064;2023-04-08T11:43:37;19.70;;;16.10;;
4794;SDS011;2411;47.060;15.064;2023-04-08T11:46:09;19.50;;;17.43;;
4794;SDS011;2411;47.060;15.064;2023-04-08T11:48:38;22.17;;;18.53;;
4794;SDS011;2411;47.060;15.064;2023-04-08T11:51:05;20.10;;;17.33;;
4794;SDS011;2411;47.060;15.064;2023-04-08T11:53:38;23.70;;;17.17;;
4794;SDS011;2411;47.060;15.064;2023-04-08T11:56:15;20.23;;;18.03;;
4794;SDS011;2411;47.060;15.064;2023-04-08T11:58:46;20.60;;;17.87;;
4794;SDS011;2411;47.060;15.064;2023-04-08T12:01:13;23.80;;;18.60;;
4794;SDS011;2411;47.060;15.064;2023-04-08T12:06:41;20.33;;;17.70;;
4794;SDS011;2411;47.060;15.064;2023-04-08T12:09:12;22.57;;;18.70;;
4794;SDS011;2411;47.060;15.064;2023-04-08T12:11:40;17.47;;;15.67;;
4794;SDS011;2411;47.060;15.064;2023-04-08T12:14:07;20.50;;;17.17;;
4794;SDS011;2411;47.060;15.064;2023-04-08T12:16:35;18.57;;;16.57;;
4794;SDS011;2411;47.060;15.064;2023-04-08T12:19:02;20.30;;;17.07;;
4794;SDS011;2411;47.060;15.064;2023-04-08T12:21:29;19.17;;;17.00;;
4794;SDS011;2411;47.060;15.064;2023-04-08T12:23:58;23.50;;;16.70;;
4794;SDS011;2411;47.060;15.064;2023-04-08T12:26:25;17.73;;;15.60;;
4794;SDS011;2411;47.060;15.064;2023-04-08T12:28:52;18.80;;;16.50;;
4794;SDS011;2411;47.060;15.064;2023-04-08T12:31:19;25.13;;;17.73;;
4794;SDS011;2411;47.060;15.064;2023-04-08T12:33:48;19.27;;;16.57;;
4794;SDS011;2411;47.060;15.064;2023-04-08T12:36:16;20.33;;;16.40;;
4794;SDS011;2411;47.060;15.064;2023-04-08T12:38:43;21.23;;;16.33;;
4794;SDS011;2411;47.060;15.064;2023-04-08T12:41:11;19.73;;;16.20;;
4794;SDS011;2411;47.060;15.064;2023-04-08T12:43:38;20.90;;;17.23;;
4794;SDS011;2411;47.060;15.064;2023-04-08T12:46:06;21.30;;;17.20;;
4794;SDS011;2411;47.060;15.064;2023-04-08T12:48:33;20.60;;;16.80;;
4794;SDS011;2411;47.060;15.064;2023-04-08T12:51:00;19.43;;;17.33;;
4794;SDS011;2411;47.060;15.064;2023-04-08T12:53:28;21.07;;;17.63;;
4794;SDS011;2411;47.060;15.064;2023-04-08T12:55:56;17.47;;;15.57;;
4794;SDS011;2411;47.060;15.064;2023-04-08T12:58:23;18.70;;;16.70;;
4794;SDS011;2411;47.060;15.064;2023-04-08T13:00:51;20.23;;;17.20;;
4794;SDS011;2411;47.060;15.064;2023-04-08T13:03:18;21.07;;;16.97;;
4794;SDS011;2411;47.060;15.064;2023-04-08T13:05:46;20.20;;;17.67;;
4794;SDS011;2411;47.060;15.064;2023-04-08T13:08:14;22.47;;;16.73;;
4794;SDS011;2411;47.060;15.064;2023-04-08T13:10:42;22.60;;;17.30;;
4794;SDS011;2411;47.060;15.064;2023-04-08T13:13:09;21.27;;;16.33;;
4794;SDS011;2411;47.060;15.064;2023-04-08T13:15:39;20.30;;;17.00;;
4794;SDS011;2411;47.060;15.064;2023-04-08T13:18:07;19.70;;;17.23;;
4794;SDS011;2411;47.060;15.064;2023-04-08T13:20:34;18.90;;;16.90;;
4794;SDS011;2411;47.060;15.064;2023-04-08T13:23:02;19.07;;;17.13;;
4794;SDS011;2411;47.060;15.064;2023-04-08T13:25:29;20.37;;;18.10;;
4794;SDS011;2411;47.060;15.064;2023-04-08T13:27:57;20.70;;;17.90;;
4794;SDS011;2411;47.060;15.064;2023-04-08T13:30:24;21.13;;;17.80;;
4794;SDS011;2411;47.060;15.064;2023-04-08T13:32:51;17.70;;;15.90;;
4794;SDS011;2411;47.060;15.064;2023-04-08T13:35:18;19.27;;;15.27;;
4794;SDS011;2411;47.060;15.064;2023-04-08T13:37:46;19.70;;;16.40;;
4794;SDS011;2411;47.060;15.064;2023-04-08T13:40:13;16.50;;;14.80;;
4794;SDS011;2411;47.060;15.064;2023-04-08T13:42:40;17.80;;;15.93;;
4794;SDS011;2411;47.060;15.064;2023-04-08T13:45:08;17.00;;;14.50;;
4794;SDS011;2411;47.060;15.064;2023-04-08T13:47:36;18.43;;;15.53;;
4794;SDS011;2411;47.060;15.064;2023-04-08T13:50:07;18.10;;;15.53;;
4794;SDS011;2411;47.060;15.064;2023-04-08T13:52:35;15.97;;;14.27;;
4794;SDS011;2411;47.060;15.064;2023-04-08T13:55:02;17.17;;;14.73;;
4794;SDS011;2411;47.060;15.064;2023-04-08T13:57:30;16.60;;;14.30;;
4794;SDS011;2411;47.060;15.064;2023-04-08T13:59:57;17.73;;;14.63;;
4794;SDS011;2411;47.060;15.064;2023-04-08T14:02:25;16.00;;;13.83;;
4794;SDS011;2411;47.060;15.064;2023-04-08T14:04:52;16.70;;;14.83;;
4794;SDS011;2411;47.060;15.064;2023-04-08T14:07:20;18.70;;;16.30;;
4794;SDS011;2411;47.060;15.064;2023-04-08T14:09:47;19.03;;;16.83;;
4794;SDS011;2411;47.060;15.064;2023-04-08T14:12:14;18.23;;;15.17;;
4794;SDS011;2411;47.060;15.064;2023-04-08T14:14:41;22.00;;;16.50;;
4794;SDS011;2411;47.060;15.064;2023-04-08T14:17:09;18.67;;;15.77;;
4794;SDS011;2411;47.060;15.064;2023-04-08T14:19:36;20.77;;;16.90;;
4794;SDS011;2411;47.060;15.064;2023-04-08T14:22:03;23.17;;;16.53;;
4794;SDS011;2411;47.060;15.064;2023-04-08T14:24:31;21.93;;;18.03;;
4794;SDS011;2411;47.060;15.064;2023-04-08T14:26:58;24.60;;;18.50;;
4794;SDS011;2411;47.060;15.064;2023-04-08T14:29:25;28.97;;;21.40;;
4794;SDS011;2411;47.060;15.064;2023-04-08T14:31:53;34.30;;;22.53;;
4794;SDS011;2411;47.060;15.064;2023-04-08T14:34:20;22.10;;;18.33;;
4794;SDS011;2411;47.060;15.064;2023-04-08T14:36:47;18.80;;;15.90;;
4794;SDS011;2411;47.060;15.064;2023-04-08T14:39:15;17.33;;;15.53;;
4794;SDS011;2411;47.060;15.064;2023-04-08T14:41:42;20.93;;;16.20;;
4794;SDS011;2411;47.060;15.064;2023-04-08T14:44:10;23.60;;;17.93;;
4794;SDS011;2411;47.060;15.064;2023-04-08T14:46:37;17.33;;;15.60;;
4794;SDS011;2411;47.060;15.064;2023-04-08T14:49:05;18.37;;;15.53;;
4794;SDS011;2411;47.060;15.064;2023-04-08T14:51:32;18.00;;;16.10;;
4794;SDS011;2411;47.060;15.064;2023-04-08T14:54:00;20.57;;;17.10;;
4794;SDS011;2411;47.060;15.064;2023-04-08T14:56:27;18.70;;;16.20;;
4794;SDS011;2411;47.060;15.064;2023-04-08T14:58:55;18.80;;;16.80;;
4794;SDS011;2411;47.060;15.064;2023-04-08T15:01:22;17.97;;;15.90;;
4794;SDS011;2411;47.060;15.064;2023-04-08T15:03:49;17.83;;;15.80;;
4794;SDS011;2411;47.060;15.064;2023-04-08T15:06:17;19.80;;;17.70;;
4794;SDS011;2411;47.060;15.064;2023-04-08T15:08:46;20.63;;;16.77;;
4794;SDS011;2411;47.060;15.064;2023-04-08T15:11:13;20.90;;;17.03;;
4794;SDS011;2411;47.060;15.064;2023-04-08T15:13:41;22.20;;;17.60;;
4794;SDS011;2411;47.060;15.064;2023-04-08T15:16:08;18.83;;;16.03;;
4794;SDS011;2411;47.060;15.064;2023-04-08T15:18:35;20.53;;;18.33;;
4794;SDS011;2411;47.060;15.064;2023-04-08T15:21:03;22.20;;;17.97;;